Time;durP1;ratioP1;P1;durP2;ratioP2;P2;SDS_P1;SDS_P2;PMS_P1;PMS_P2;Temp;Humidity;BMP_temperature;BMP_pressure;BME280_temperature;BME280_humidity;BME280_pressure;Samples;Min_cycle;Max_cycle;Signal;HPM_P1;HPM_P2
2022/11/24 00:00:28;;;;;;;53.20;30.43;;;;;;;2.60;71.60;99492.03;4849575;28;98532;-87
2022/11/24 00:02:53;;;;;;;53.67;32.53;;;;;;;2.50;71.27;99467.97;4852036;28;101051;-86
2022/11/24 00:05:19;;;;;;;54.90;31.77;;;;;;;2.47;71.84;99481.84;4841190;29;97020;-86
2022/11/24 00:07:44;;;;;;;57.00;31.40;;;;;;;2.59;71.22;99490.31;4874932;28;97252;-86
2022/11/24 00:10:09;;;;;;;52.17;30.73;;;;;;;2.45;71.59;99483.59;4855752;28;101217;-85
2022/11/24 00:12:35;;;;;;;51.60;30.60;;;;;;;2.41;72.22;99494.88;4872450;28;101609;-86
2022/11/24 00:15:00;;;;;;;55.10;30.97;;;;;;;2.36;72.08;99496.69;4856503;29;97059;-86
2022/11/24 00:17:28;;;;;;;53.83;32.17;;;;;;;2.34;72.32;99495.00;4858570;28;97546;-87
2022/11/24 00:19:54;;;;;;;54.10;32.00;;;;;;;2.32;72.07;99476.03;4855671;28;100449;-86
2022/11/24 00:22:19;;;;;;;54.03;30.63;;;;;;;2.43;72.08;99487.09;4859827;28;101296;-86
2022/11/24 00:24:44;;;;;;;54.03;31.77;;;;;;;2.34;72.00;99485.50;4868398;28;96886;-86
2022/11/24 00:27:10;;;;;;;52.43;31.60;;;;;;;2.36;72.58;99501.88;4867210;28;96919;-85
2022/11/24 00:29:35;;;;;;;55.87;32.27;;;;;;;2.37;72.46;99500.13;4848111;29;98031;-86
2022/11/24 00:32:04;;;;;;;53.50;32.00;;;;;;;2.31;72.61;99480.34;4847645;28;99902;-86
2022/11/24 00:34:30;;;;;;;53.17;32.20;;;;;;;2.35;72.50;99497.56;4840576;29;97134;-87
2022/11/24 00:36:55;;;;;;;54.87;31.83;;;;;;;2.40;72.39;99490.56;4846950;28;96896;-86
2022/11/24 00:39:21;;;;;;;54.73;31.33;;;;;;;2.48;72.27;99496.50;4859535;29;101931;-85
2022/11/24 00:41:46;;;;;;;51.13;30.10;;;;;;;2.59;71.96;99503.25;4828424;28;101244;-86
2022/11/24 00:44:12;;;;;;;55.33;32.13;;;;;;;2.45;71.88;99493.97;4844020;29;96770;-86
2022/11/24 00:46:37;;;;;;;56.20;32.27;;;;;;;2.40;72.11;99492.31;4855964;28;97245;-86
2022/11/24 00:49:03;;;;;;;54.07;30.70;;;;;;;2.38;72.16;99507.88;4843593;28;100937;-86
2022/11/24 00:51:29;;;;;;;56.80;32.77;;;;;;;2.19;72.39;99489.16;4828372;28;101312;-87
2022/11/24 00:53:56;;;;;;;61.80;33.57;;;;;;;2.29;72.97;99501.97;4856479;28;96700;-86
2022/11/24 00:56:22;;;;;;;58.53;33.73;;;;;;;2.26;73.01;99500.25;4852434;28;96999;-86
2022/11/24 00:58:49;;;;;;;56.00;32.27;;;;;;;2.20;72.68;99482.22;4858465;28;101273;-85
2022/11/24 01:01:20;;;;;;;54.40;32.37;;;;;;;2.41;72.31;99494.88;4866847;28;98075;-87
2022/11/24 01:03:46;;;;;;;51.85;30.40;;;;;;;2.17;72.71;99470.16;4847623;28;96776;-87
2022/11/24 01:06:15;;;;;;;60.03;32.57;;;;;;;2.24;73.06;99491.66;4873860;28;96788;-87
2022/11/24 01:08:41;;;;;;;56.07;33.03;;;;;;;2.28;73.11;99493.34;4861959;28;98045;-85
2022/11/24 01:11:11;;;;;;;59.87;31.97;;;;;;;2.26;73.19;99503.72;4845421;28;99957;-87
2022/11/24 01:13:37;;;;;;;56.87;33.00;;;;;;;1.96;72.96;99463.53;4862619;28;97025;-86
2022/11/24 01:16:03;;;;;;;57.83;32.73;;;;;;;2.15;73.07;99489.19;4847758;28;97139;-85
2022/11/24 01:18:28;;;;;;;54.47;32.87;;;;;;;2.33;72.73;99494.16;4877119;28;97422;-87
2022/11/24 01:20:54;;;;;;;62.70;34.20;;;;;;;2.34;72.65;99500.19;4844670;28;100993;-86
2022/11/24 01:23:19;;;;;;;67.13;33.10;;;;;;;2.28;73.25;99508.03;4840853;28;96692;-85
2022/11/24 01:25:45;;;;;;;66.53;33.20;;;;;;;2.17;72.73;99500.41;4859710;28;97079;-86
2022/11/24 01:28:10;;;;;;;55.87;32.37;;;;;;;2.19;73.49;99493.47;4840358;28;101026;-85
2022/11/24 01:30:36;;;;;;;57.80;32.03;;;;;;;2.18;73.14;99497.81;4844295;28;101411;-86
2022/11/24 01:33:01;;;;;;;56.27;32.97;;;;;;;2.31;72.97;99508.00;4855648;28;97284;-86
2022/11/24 01:35:27;;;;;;;52.13;30.53;;;;;;;2.25;73.12;99514.97;4859294;28;96832;-87
2022/11/24 01:37:52;;;;;;;55.90;32.13;;;;;;;2.14;73.24;99496.09;4834270;29;101236;-86
2022/11/24 01:40:18;;;;;;;59.97;33.77;;;;;;;2.19;72.97;99498.66;4873046;28;97020;-86
2022/11/24 01:42:51;;;;;;;54.53;32.00;;;;;;;2.08;73.12;99485.84;4838661;29;97083;-87
2022/11/24 01:45:34;;;;;;;58.03;32.13;;;;;;;2.15;73.55;99513.38;4840181;28;96731;-86
2022/11/24 01:48:02;;;;;;;62.60;33.60;;;;;;;2.13;73.19;99503.91;4828158;29;100270;-85
2022/11/24 01:50:28;;;;;;;57.37;34.50;;;;;;;2.09;73.66;99503.06;4828940;28;100087;-86
2022/11/24 01:52:54;;;;;;;53.53;32.07;;;;;;;2.02;73.13;99494.53;4854807;28;97372;-86
2022/11/24 01:55:22;;;;;;;61.93;34.33;;;;;;;2.08;73.68;99516.91;4846278;28;96887;-85
2022/11/24 01:57:53;;;;;;;60.50;35.83;;;;;;;2.07;73.36;99514.34;4857828;28;101444;-86
2022/11/24 02:00:18;;;;;;;66.13;38.37;;;;;;;2.11;73.45;99519.44;4858195;28;102192;-87
2022/11/24 02:02:44;;;;;;;67.73;38.60;;;;;;;2.17;72.98;99518.53;4877335;28;96935;-86
2022/11/24 02:05:16;;;;;;;68.90;36.60;;;;;;;2.03;72.49;99479.84;4854338;28;96940;-86
2022/11/24 02:07:42;;;;;;;66.00;35.72;;;;;;;1.99;72.56;99473.84;4846667;28;101112;-86
2022/11/24 02:10:11;;;;;;;62.03;36.23;;;;;;;2.06;72.90;99502.25;4846497;29;100955;-86
2022/11/24 02:12:38;;;;;;;62.63;33.87;;;;;;;2.19;73.19;99507.28;4827286;28;96690;-86
2022/11/24 02:15:04;;;;;;;57.87;34.30;;;;;;;2.20;72.68;99490.84;4858224;29;97433;-86
2022/11/24 02:17:30;;;;;;;58.60;33.93;;;;;;;2.08;72.97;99491.00;4857926;28;101466;-87
2022/11/24 02:20:00;;;;;;;58.23;33.03;;;;;;;2.02;72.96;99496.28;4834093;28;101660;-86
2022/11/24 02:22:50;;;;;;;61.67;34.37;;;;;;;2.23;72.78;99513.25;4854214;28;97230;-86
2022/11/24 02:25:40;;;;;;;53.87;32.73;;;;;;;2.00;73.03;99483.34;4869812;28;96943;-86
2022/11/24 02:28:09;;;;;;;60.10;33.30;;;;;;;2.12;73.32;99508.22;4866230;28;98385;-86
2022/11/24 02:30:35;;;;;;;56.03;33.47;;;;;;;2.11;72.95;99492.72;4845826;28;101180;-86
2022/11/24 02:33:01;;;;;;;57.40;33.57;;;;;;;2.11;72.89;99500.47;4861696;28;96731;-86
2022/11/24 02:35:27;;;;;;;54.83;34.67;;;;;;;2.08;73.28;99501.38;4841070;28;97158;-86
2022/11/24 02:37:52;;;;;;;60.77;35.20;;;;;;;2.06;73.01;99499.66;4853509;28;101315;-86
2022/11/24 02:40:24;;;;;;;61.23;34.93;;;;;;;1.94;72.79;99475.63;4843572;28;99986;-86
2022/11/24 02:42:52;;;;;;;63.85;36.70;;;;;;;2.08;72.95;99498.78;4857476;29;96693;-86
2022/11/24 02:45:18;;;;;;;58.27;35.23;;;;;;;2.11;73.11;99503.06;4841855;28;96906;-86
2022/11/24 02:47:44;;;;;;;59.97;35.10;;;;;;;2.04;73.07;99495.38;4860168;28;101228;-86
2022/11/24 02:50:10;;;;;;;61.97;35.77;;;;;;;2.12;72.75;99505.63;4862346;28;101289;-86
2022/11/24 02:52:36;;;;;;;61.47;35.13;;;;;;;2.11;73.01;99505.66;4842327;28;96806;-86
2022/11/24 02:55:01;;;;;;;60.13;35.50;;;;;;;2.04;73.05;99497.13;4856951;28;96761;-85
2022/11/24 02:57:27;;;;;;;68.77;38.40;;;;;;;2.09;72.81;99508.25;4845070;28;99895;-86
2022/11/24 02:59:52;;;;;;;68.83;37.80;;;;;;;2.18;72.87;99520.22;4841425;28;101428;-86
2022/11/24 03:02:17;;;;;;;62.43;36.77;;;;;;;2.22;72.99;99520.19;4846186;28;96730;-85
2022/11/24 03:04:43;;;;;;;55.33;33.63;;;;;;;2.19;73.27;99512.44;4869223;28;96656;-86
2022/11/24 03:07:09;;;;;;;58.33;34.40;;;;;;;2.17;73.28;99516.78;4852841;28;100008;-84
2022/11/24 03:09:34;;;;;;;58.33;34.63;;;;;;;2.09;73.49;99510.00;4843672;28;100988;-86
2022/11/24 03:12:00;;;;;;;57.57;33.77;;;;;;;2.28;73.40;99531.34;4852780;28;97574;-86
2022/11/24 03:14:25;;;;;;;53.10;32.47;;;;;;;2.22;73.22;99529.69;4841865;28;97391;-85
2022/11/24 03:16:51;;;;;;;59.70;33.97;;;;;;;2.04;73.72;99502.28;4864189;28;100790;-86
2022/11/24 03:19:16;;;;;;;56.80;33.37;;;;;;;2.14;73.64;99529.78;4861198;28;98820;-85
2022/11/24 03:21:42;;;;;;;65.80;36.40;;;;;;;2.21;73.34;99528.84;4878066;28;96685;-86
2022/11/24 03:24:07;;;;;;;63.70;33.40;;;;;;;2.20;73.48;99542.63;4856723;28;96947;-86
2022/11/24 03:26:33;;;;;;;59.30;33.00;;;;;;;2.20;73.33;99544.38;4840754;29;101324;-87
2022/11/24 03:29:00;;;;;;;65.60;34.83;;;;;;;2.19;73.21;99529.72;4842134;28;100315;-85
2022/11/24 03:31:25;;;;;;;58.97;33.17;;;;;;;2.14;73.38;99513.38;4847476;29;97991;-86
2022/11/24 03:33:51;;;;;;;58.33;34.97;;;;;;;2.21;73.46;99526.25;4853553;28;97129;-87
2022/11/24 03:36:16;;;;;;;56.30;34.07;;;;;;;2.32;73.24;99533.00;4844214;29;100264;-86
2022/11/24 03:38:42;;;;;;;59.20;33.67;;;;;;;2.20;73.52;99534.88;4842381;28;101249;-86
2022/11/24 03:41:07;;;;;;;55.93;32.83;;;;;;;2.19;73.85;99542.69;4867678;28;97236;-86
2022/11/24 03:43:33;;;;;;;50.97;32.87;;;;;;;2.16;73.70;99543.56;4836643;28;96962;-89
2022/11/24 03:45:58;;;;;;;55.50;32.30;;;;;;;2.37;73.39;99547.59;4861589;28;99343;-86
2022/11/24 03:48:24;;;;;;;58.03;33.70;;;;;;;2.14;73.66;99515.97;4838071;28;100241;-85
2022/11/24 03:50:54;;;;;;;57.60;33.07;;;;;;;2.26;73.62;99552.91;4859451;28;96962;-86
2022/11/24 03:53:19;;;;;;;55.50;33.97;;;;;;;2.15;74.49;99541.84;4844194;28;96784;-85
2022/11/24 03:55:45;;;;;;;54.23;33.73;;;;;;;2.21;73.88;99546.06;4840652;29;101028;-86
2022/11/24 03:58:10;;;;;;;56.30;33.50;;;;;;;2.20;73.87;99547.81;4840878;28;101388;-87
2022/11/24 04:00:36;;;;;;;61.33;34.10;;;;;;;2.36;73.28;99552.81;4850253;28;96780;-86
2022/11/24 04:03:01;;;;;;;54.73;32.30;;;;;;;2.26;73.42;99531.34;4860938;28;96894;-86
2022/11/24 04:05:27;;;;;;;58.93;33.70;;;;;;;2.21;73.65;99531.41;4868090;28;97502;-85
2022/11/24 04:07:56;;;;;;;56.90;32.90;;;;;;;2.33;73.17;99522.63;4859403;28;100189;-86
2022/11/24 04:10:23;;;;;;;53.77;32.50;;;;;;;2.45;72.74;99525.06;4858869;28;96689;-86
2022/11/24 04:12:48;;;;;;;58.50;34.03;;;;;;;2.41;72.96;99525.97;4864038;28;97427;-87
2022/11/24 04:15:16;;;;;;;59.43;32.33;;;;;;;2.39;72.79;99537.25;4847080;28;101166;-85
2022/11/24 04:17:42;;;;;;;59.73;32.57;;;;;;;2.33;73.31;99534.69;4868606;28;97419;-86
2022/11/24 04:20:09;;;;;;;57.50;32.53;;;;;;;2.17;73.18;99514.19;4857118;28;96960;-86
2022/11/24 04:22:34;;;;;;;54.23;31.47;;;;;;;2.43;73.33;99544.94;4874796;28;97174;-87
2022/11/24 04:25:00;;;;;;;53.50;32.10;;;;;;;2.33;73.55;99521.75;4848232;28;101367;-86
2022/11/24 04:27:26;;;;;;;55.97;33.47;;;;;;;2.11;73.25;99497.88;4852205;29;101604;-86
2022/11/24 04:29:52;;;;;;;57.17;32.47;;;;;;;2.28;73.68;99542.56;4856881;28;97252;-86
2022/11/24 04:32:17;;;;;;;54.93;33.70;;;;;;;2.17;73.94;99528.88;4881932;28;97311;-86
2022/11/24 04:34:42;;;;;;;54.33;32.93;;;;;;;2.42;73.37;99547.56;4846145;29;100711;-86
2022/11/24 04:37:08;;;;;;;54.63;31.73;;;;;;;2.38;73.55;99556.22;4861513;28;97995;-85
2022/11/24 04:39:34;;;;;;;53.53;33.40;;;;;;;2.27;73.55;99543.44;4862217;28;96753;-87
2022/11/24 04:41:59;;;;;;;54.73;32.43;;;;;;;2.35;73.75;99549.34;4867173;28;96841;-86
2022/11/24 04:44:25;;;;;;;61.77;35.03;;;;;;;2.54;73.19;99560.34;4874513;28;100232;-89
2022/11/24 04:46:50;;;;;;;54.10;34.07;;;;;;;2.30;73.28;99527.84;4846737;28;102023;-86
2022/11/24 04:49:16;;;;;;;52.93;31.30;;;;;;;2.28;72.97;99524.44;4862131;28;96721;-86
2022/11/24 04:51:41;;;;;;;54.70;33.30;;;;;;;2.47;72.97;99561.28;4865812;28;96762;-87
2022/11/24 04:54:09;;;;;;;59.17;32.27;;;;;;;2.33;73.01;99545.94;4852164;28;99825;-86
2022/11/24 04:56:34;;;;;;;56.87;32.67;;;;;;;2.31;72.94;99539.91;4847267;28;100988;-86
2022/11/24 04:59:00;;;;;;;54.83;33.57;;;;;;;2.45;73.14;99591.56;4854442;28;97252;-86
2022/11/24 05:01:26;;;;;;;55.23;33.13;;;;;;;2.52;73.32;99589.75;4847881;28;96736;-86
2022/11/24 05:03:53;;;;;;;58.77;33.73;;;;;;;2.32;73.42;99575.28;4854282;28;100966;-85
2022/11/24 05:06:19;;;;;;;53.50;33.00;;;;;;;2.38;73.61;99580.41;4883888;28;97974;-86
2022/11/24 05:08:51;;;;;;;52.90;32.13;;;;;;;2.55;73.16;99600.06;4846700;28;97202;-86
2022/11/24 05:11:17;;;;;;;56.07;34.20;;;;;;;2.38;73.14;99583.00;4860503;28;97759;-86
2022/11/24 05:13:43;;;;;;;56.87;32.77;;;;;;;2.48;73.11;99614.84;4843898;29;101795;-86
2022/11/24 05:16:08;;;;;;;48.90;31.20;;;;;;;2.46;73.26;99614.84;4852257;28;100453;-86
2022/11/24 05:18:34;;;;;;;58.17;35.93;;;;;;;2.43;73.15;99614.03;4857013;28;96872;-86
2022/11/24 05:21:00;;;;;;;58.03;36.53;;;;;;;2.33;73.50;99602.94;4861170;28;97048;-86
2022/11/24 05:23:26;;;;;;;59.97;36.40;;;;;;;2.39;73.19;99610.63;4859674;28;101230;-86
2022/11/24 05:25:52;;;;;;;58.67;35.43;;;;;;;2.50;73.34;99623.44;4848444;28;101372;-85
2022/11/24 05:28:17;;;;;;;57.57;36.10;;;;;;;2.28;73.55;99593.50;4834238;29;97303;-85
2022/11/24 05:30:44;;;;;;;59.33;37.03;;;;;;;2.61;72.98;99620.72;4836116;28;96971;-85
2022/11/24 05:33:23;;;;;;;61.67;37.33;;;;;;;2.45;73.51;99615.72;4841513;28;100092;-85
2022/11/24 05:35:49;;;;;;;58.83;33.97;;;;;;;2.07;73.73;99569.56;4860066;28;97237;-86
2022/11/24 05:38:15;;;;;;;60.80;34.83;;;;;;;2.09;73.63;99570.38;4870049;28;96910;-86
2022/11/24 05:40:42;;;;;;;60.73;35.07;;;;;;;2.40;73.69;99621.84;4853309;28;96924;-87
2022/11/24 05:43:11;;;;;;;56.47;33.77;;;;;;;2.35;73.67;99624.47;4861252;28;100012;-85
2022/11/24 05:45:37;;;;;;;58.47;34.80;;;;;;;2.21;73.62;99593.56;4842393;28;100832;-85
2022/11/24 05:48:12;;;;;;;58.60;33.87;;;;;;;2.28;73.79;99588.31;4858980;28;96867;-86
2022/11/24 05:50:37;;;;;;;57.23;33.43;;;;;;;2.39;74.00;99620.13;4839464;28;96884;-86
2022/11/24 05:53:08;;;;;;;62.33;35.17;;;;;;;2.33;74.06;99607.22;4870139;28;99153;-86
2022/11/24 05:55:34;;;;;;;55.07;32.80;;;;;;;2.42;73.96;99620.94;4841920;28;99884;-89
2022/11/24 05:58:01;;;;;;;61.70;37.33;;;;;;;2.52;73.39;99620.84;4855010;28;97072;-90
2022/11/24 06:00:27;;;;;;;58.50;33.83;;;;;;;2.45;73.47;99623.50;4842005;28;96841;-83
2022/11/24 06:02:53;;;;;;;61.77;34.73;;;;;;;2.38;73.77;99633.94;4861028;28;97980;-87
2022/11/24 06:05:18;;;;;;;58.87;33.93;;;;;;;2.31;74.86;99629.72;4844320;29;100998;-85
2022/11/24 06:07:44;;;;;;;63.53;36.53;;;;;;;2.25;74.25;99620.28;4845179;29;96724;-89
2022/11/24 06:10:10;;;;;;;62.80;36.30;;;;;;;2.49;74.23;99645.03;4864484;28;96647;-90
2022/11/24 06:17:27;;;;;;;63.03;37.70;;;;;;;2.44;74.13;99663.25;4877981;28;97020;-90
2022/11/24 06:23:33;;;;;;;65.13;36.03;;;;;;;2.54;73.40;99674.34;4841605;29;96967;-90
2022/11/24 06:25:59;;;;;;;62.43;35.07;;;;;;;2.55;73.52;99676.06;4821241;29;101409;-91
2022/11/24 06:28:25;;;;;;;60.07;35.63;;;;;;;2.52;73.55;99678.69;4818664;29;100915;-83
2022/11/24 06:30:51;;;;;;;64.77;36.60;;;;;;;2.45;73.48;99683.09;4805932;29;96849;-84
2022/11/24 06:33:16;;;;;;;62.27;36.17;;;;;;;2.48;73.54;99682.19;4790984;29;97049;-82
2022/11/24 06:35:42;;;;;;;61.60;36.67;;;;;;;2.48;73.84;99693.41;4802957;29;101050;-82
2022/11/24 06:38:07;;;;;;;55.63;33.20;;;;;;;2.41;73.71;99677.94;4815741;29;98556;-87
2022/11/24 06:40:33;;;;;;;60.27;35.37;;;;;;;2.24;74.34;99676.41;4804854;29;96725;-87
2022/11/24 06:42:58;;;;;;;65.00;36.43;;;;;;;2.26;73.75;99679.81;4832506;29;96933;-87
2022/11/24 06:45:24;;;;;;;62.50;35.77;;;;;;;2.45;73.76;99706.41;4812953;29;100893;-87
2022/11/24 06:47:53;;;;;;;63.67;37.67;;;;;;;2.31;74.44;99700.50;4819716;29;101428;-87
2022/11/24 06:50:18;;;;;;;66.13;36.63;;;;;;;2.39;74.26;99718.56;4838069;29;96804;-87
2022/11/24 06:52:44;;;;;;;63.53;36.07;;;;;;;2.46;74.27;99728.84;4821822;29;96800;-87
2022/11/24 06:55:09;;;;;;;64.80;37.20;;;;;;;2.43;74.19;99710.72;4837031;29;97471;-88
2022/11/24 06:57:35;;;;;;;61.47;37.67;;;;;;;2.42;74.21;99708.19;4822738;29;101424;-87
2022/11/24 07:00:01;;;;;;;62.13;36.40;;;;;;;2.39;74.19;99729.78;4837893;29;96731;-87
2022/11/24 07:02:26;;;;;;;60.90;35.57;;;;;;;2.24;74.80;99704.91;4809674;29;96835;-86
2022/11/24 07:04:52;;;;;;;59.00;35.53;;;;;;;2.46;74.63;99744.38;4804642;29;101192;-86
2022/11/24 07:07:17;;;;;;;61.63;37.07;;;;;;;2.54;74.61;99738.28;4798413;29;99376;-86
2022/11/24 07:09:43;;;;;;;62.63;36.70;;;;;;;2.61;74.40;99737.31;4806215;29;96687;-85
2022/11/24 07:12:08;;;;;;;66.87;37.93;;;;;;;2.44;74.52;99707.28;4806672;29;96951;-86
2022/11/24 07:14:34;;;;;;;61.77;36.90;;;;;;;2.74;74.45;99748.44;4821445;29;101441;-86
2022/11/24 07:17:01;;;;;;;63.23;36.73;;;;;;;2.82;74.16;99754.34;4806135;29;101166;-85
2022/11/24 07:19:26;;;;;;;70.20;39.23;;;;;;;2.76;73.72;99739.72;4802943;29;96706;-86
2022/11/24 07:21:52;;;;;;;71.27;39.60;;;;;;;2.82;73.31;99757.84;4820467;28;96966;-87
2022/11/24 07:24:18;;;;;;;72.70;40.37;;;;;;;2.65;73.30;99745.06;4845378;28;100240;-85
2022/11/24 07:26:43;;;;;;;75.77;42.13;;;;;;;2.69;73.57;99757.09;4842851;28;101172;-85
2022/11/24 07:29:09;;;;;;;73.33;41.70;;;;;;;2.60;73.53;99730.44;4865135;28;96710;-85
2022/11/24 07:31:34;;;;;;;81.87;46.30;;;;;;;2.74;73.82;99757.06;4846908;29;97720;-85
2022/11/24 07:34:00;;;;;;;84.07;46.33;;;;;;;2.76;73.72;99764.81;4851574;28;100064;-86
2022/11/24 07:36:25;;;;;;;80.43;43.27;;;;;;;2.58;73.29;99721.81;4854464;28;101129;-87
2022/11/24 07:38:51;;;;;;;75.23;40.60;;;;;;;2.54;73.46;99710.63;4840085;28;97203;-87
2022/11/24 07:41:18;;;;;;;79.97;43.30;;;;;;;2.78;73.23;99763.06;4836599;28;98205;-91
2022/11/24 07:43:47;;;;;;;74.53;42.37;;;;;;;2.44;73.06;99704.69;4841421;28;100119;-88
2022/11/24 07:46:14;;;;;;;82.77;42.57;;;;;;;2.74;73.31;99745.84;4850176;28;99384;-89
2022/11/24 07:48:47;;;;;;;79.97;43.80;;;;;;;2.81;73.53;99765.63;4846275;28;96669;-91
2022/11/24 07:51:14;;;;;;;81.23;46.00;;;;;;;2.76;73.52;99765.66;4842554;28;97271;-85
2022/11/24 07:53:40;;;;;;;81.47;43.87;;;;;;;2.62;73.83;99752.88;4848857;28;98022;-87
2022/11/24 07:56:06;;;;;;;73.80;43.27;;;;;;;2.55;73.85;99729.63;4857716;28;97898;-86
2022/11/24 07:58:34;;;;;;;75.77;43.93;;;;;;;2.89;73.84;99756.03;4865891;28;96855;-87
2022/11/24 08:01:09;;;;;;;81.93;44.47;;;;;;;2.98;73.06;99760.25;4859375;28;97511;-87
2022/11/24 08:03:34;;;;;;;79.23;43.63;;;;;;;2.72;73.35;99720.78;4873371;28;98618;-88
2022/11/24 08:06:00;;;;;;;68.27;43.87;;;;;;;2.93;73.54;99747.31;4872350;28;101313;-90
2022/11/24 08:08:25;;;;;;;70.90;40.43;;;;;;;2.91;73.18;99751.69;4852580;28;96822;-89
2022/11/24 08:10:51;;;;;;;68.13;39.67;;;;;;;2.87;73.07;99734.44;4856292;28;96805;-89
2022/11/24 08:13:17;;;;;;;70.37;41.50;;;;;;;2.99;73.46;99757.63;4852640;28;100692;-86
2022/11/24 08:15:43;;;;;;;70.07;38.90;;;;;;;3.03;73.35;99763.66;4862753;28;97541;-86
2022/11/24 08:18:09;;;;;;;64.63;39.03;;;;;;;2.59;73.45;99708.84;4836494;28;97292;-87
2022/11/24 08:20:34;;;;;;;69.97;40.30;;;;;;;2.84;73.55;99724.09;4835769;29;97515;-86
2022/11/24 08:23:00;;;;;;;71.57;40.50;;;;;;;3.03;73.73;99758.47;4848248;28;100978;-88
2022/11/24 08:25:30;;;;;;;72.00;41.30;;;;;;;2.95;72.99;99740.38;4842478;28;100419;-87
2022/11/24 08:28:00;;;;;;;68.20;38.77;;;;;;;2.98;73.51;99760.25;4869465;28;97076;-88
2022/11/24 08:30:25;;;;;;;78.73;44.57;;;;;;;3.21;72.99;99775.53;4855307;28;96925;-87
2022/11/24 08:32:51;;;;;;;78.03;43.07;;;;;;;3.14;72.75;99778.19;4855959;28;97679;-85
2022/11/24 08:35:16;;;;;;;71.93;40.97;;;;;;;3.05;73.39;99772.25;4850296;28;100440;-85
2022/11/24 08:37:42;;;;;;;70.07;38.40;;;;;;;3.03;73.17;99777.47;4854378;28;97372;-86
2022/11/24 08:40:08;;;;;;;72.00;40.83;;;;;;;3.04;73.37;99783.50;4869625;28;96838;-88
2022/11/24 08:42:33;;;;;;;63.73;37.73;;;;;;;3.14;73.22;99795.47;4845692;28;101579;-86
2022/11/24 08:44:59;;;;;;;71.03;39.40;;;;;;;3.17;73.10;99798.03;4838739;28;100762;-86
2022/11/24 08:47:24;;;;;;;74.93;40.53;;;;;;;3.15;73.65;99794.63;4856713;28;97445;-86
2022/11/24 08:49:50;;;;;;;72.33;39.57;;;;;;;2.98;73.60;99781.00;4863288;28;96836;-85
2022/11/24 08:52:15;;;;;;;71.27;38.70;;;;;;;3.11;73.50;99803.28;4854365;28;101358;-89
2022/11/24 08:54:43;;;;;;;68.23;40.07;;;;;;;2.94;73.81;99774.97;4858178;28;101331;-87
2022/11/24 08:57:09;;;;;;;68.57;39.40;;;;;;;3.08;73.62;99790.34;4854498;28;96690;-88
2022/11/24 08:59:35;;;;;;;65.97;38.00;;;;;;;2.90;73.46;99757.72;4876020;28;97265;-88
2022/11/24 09:02:00;;;;;;;71.20;38.73;;;;;;;2.92;73.36;99754.25;4840776;28;100975;-91
2022/11/24 09:04:26;;;;;;;73.93;39.43;;;;;;;3.36;72.78;99807.31;4856913;28;98111;-88
2022/11/24 09:06:51;;;;;;;64.67;36.67;;;;;;;3.21;72.61;99776.38;4840620;28;97402;-86
2022/11/24 09:09:17;;;;;;;68.33;37.20;;;;;;;2.93;73.22;99742.13;4868857;28;96804;-86
2022/11/24 09:11:42;;;;;;;58.90;33.97;;;;;;;3.45;72.92;99815.84;4839349;28;101384;-86
2022/11/24 09:14:08;;;;;;;62.10;35.77;;;;;;;3.42;73.15;99821.94;4856430;28;97390;-87
2022/11/24 09:16:33;;;;;;;66.50;37.47;;;;;;;3.53;72.52;99811.44;4837254;28;96890;-86
2022/11/24 09:19:01;;;;;;;66.93;39.10;;;;;;;3.43;72.78;99795.09;4852356;28;97019;-86
2022/11/24 09:21:26;;;;;;;66.37;36.30;;;;;;;3.32;73.65;99794.41;4870842;28;98382;-86
2022/11/24 09:23:53;;;;;;;65.33;37.73;;;;;;;3.51;73.57;99818.38;4864491;28;98339;-89
2022/11/24 09:26:23;;;;;;;65.70;37.97;;;;;;;3.58;73.46;99814.81;4859069;28;96855;-86
2022/11/24 09:28:53;;;;;;;63.73;36.63;;;;;;;3.71;73.00;99812.91;4840020;28;97284;-92
2022/11/24 09:31:20;;;;;;;65.47;36.80;;;;;;;3.76;72.31;99792.94;4844214;28;99616;-85
2022/11/24 09:33:46;;;;;;;73.80;38.83;;;;;;;3.94;71.73;99812.56;4845762;28;100292;-89
2022/11/24 09:36:13;;;;;;;66.20;37.20;;;;;;;4.01;71.35;99816.78;4838535;28;96745;-86
2022/11/24 09:38:38;;;;;;;72.93;37.50;;;;;;;3.82;71.78;99798.88;4855938;28;97181;-86
2022/11/24 09:41:43;;;;;;;74.07;38.80;;;;;;;3.96;72.17;99819.47;4852618;28;96872;-86
2022/11/24 09:44:40;;;;;;;76.57;41.13;;;;;;;3.84;72.08;99797.13;4854194;28;98380;-87
2022/11/24 09:47:24;;;;;;;69.33;37.27;;;;;;;4.23;71.34;99819.91;4859567;28;97506;-86
2022/11/24 09:49:58;;;;;;;69.57;37.60;;;;;;;4.39;70.23;99816.16;4857527;28;98083;-87
2022/11/24 09:52:48;;;;;;;74.40;39.63;;;;;;;4.45;69.83;99810.00;4842543;29;101051;-86
2022/11/24 09:55:21;;;;;;;70.07;38.30;;;;;;;4.43;70.09;99810.03;4856446;28;100844;-89
2022/11/24 09:57:53;;;;;;;64.00;36.83;;;;;;;4.58;70.33;99815.88;4855017;28;97315;-86
2022/11/24 10:00:18;;;;;;;73.40;39.53;;;;;;;4.57;69.61;99808.94;4853424;28;97175;-86
2022/11/24 10:02:46;;;;;;;67.07;36.73;;;;;;;4.76;70.15;99815.53;4864372;28;100814;-86
2022/11/24 10:05:12;;;;;;;66.77;36.63;;;;;;;4.89;69.72;99830.03;4861001;28;98992;-89
2022/11/24 10:08:01;;;;;;;66.17;36.03;;;;;;;5.13;68.86;99814.84;4847088;29;98055;-91
2022/11/24 10:10:51;;;;;;;70.37;37.60;;;;;;;5.42;68.24;99816.84;4850026;28;97855;-91
2022/11/24 10:13:35;;;;;;;64.57;36.47;;;;;;;5.53;68.15;99812.28;4856955;28;101347;-90
2022/11/24 10:16:38;;;;;;;64.27;35.57;;;;;;;5.62;67.62;99812.06;4850909;28;101448;-89
2022/11/24 10:19:13;;;;;;;61.97;35.50;;;;;;;5.48;67.17;99815.84;4868888;28;97739;-89
2022/11/24 10:21:46;;;;;;;64.27;37.17;;;;;;;5.40;67.16;99810.81;4873146;28;96752;-89
2022/11/24 10:24:45;;;;;;;67.70;37.93;;;;;;;5.33;67.45;99812.69;4861188;28;98558;-88
2022/11/24 10:27:18;;;;;;;67.80;36.80;;;;;;;5.12;67.94;99803.56;4865031;28;101265;-88
2022/11/24 10:29:48;;;;;;;62.70;35.60;;;;;;;4.96;68.49;99808.19;4842939;28;97963;-90
2022/11/24 10:32:13;;;;;;;69.40;38.77;;;;;;;4.86;68.91;99816.19;4842156;28;97250;-89
2022/11/24 10:34:43;;;;;;;70.40;38.67;;;;;;;4.95;68.48;99813.44;4862044;28;100253;-89
2022/11/24 10:37:30;;;;;;;69.17;38.13;;;;;;;4.80;69.25;99819.81;4863748;28;97449;-88
2022/11/24 10:40:04;;;;;;;65.67;37.63;;;;;;;4.82;69.19;99812.81;4869670;28;97895;-88
2022/11/24 10:42:37;;;;;;;71.40;37.70;;;;;;;4.88;69.03;99823.09;4843464;28;96810;-89
2022/11/24 10:45:16;;;;;;;65.30;37.37;;;;;;;4.82;68.68;99810.22;4864512;28;101723;-90
2022/11/24 10:47:43;;;;;;;65.53;37.93;;;;;;;4.73;69.13;99820.78;4879524;28;97370;-89
2022/11/24 10:50:24;;;;;;;70.33;39.77;;;;;;;4.69;69.43;99821.72;4842199;29;96782;-89
2022/11/24 10:53:07;;;;;;;68.23;36.40;;;;;;;4.60;69.55;99817.56;4845766;28;97233;-89
2022/11/24 10:55:55;;;;;;;66.83;37.17;;;;;;;4.70;68.99;99826.03;4875656;28;97174;-89
2022/11/24 10:58:35;;;;;;;71.33;37.67;;;;;;;4.73;69.02;99802.59;4869263;28;101524;-90
2022/11/24 11:01:13;;;;;;;64.53;37.10;;;;;;;4.72;68.70;99796.53;4863366;28;96949;-90
2022/11/24 11:03:45;;;;;;;68.90;36.77;;;;;;;4.79;69.14;99819.81;4865445;28;97191;-88
2022/11/24 11:06:13;;;;;;;73.10;38.63;;;;;;;4.49;69.38;99783.94;4840568;28;101480;-85
2022/11/24 11:08:39;;;;;;;64.33;35.90;;;;;;;4.65;68.81;99802.72;4850831;28;100282;-89
2022/11/24 11:11:28;;;;;;;65.87;35.40;;;;;;;4.59;69.61;99817.56;4834030;28;97039;-90
2022/11/24 11:13:55;;;;;;;65.63;35.80;;;;;;;4.53;70.12;99821.13;4861884;28;96838;-89
2022/11/24 11:16:28;;;;;;;70.57;39.40;;;;;;;4.64;69.39;99814.00;4838333;28;100178;-89
2022/11/24 11:18:53;;;;;;;64.33;37.10;;;;;;;4.58;70.01;99823.66;4857710;28;101581;-92
2022/11/24 11:21:38;;;;;;;64.77;37.07;;;;;;;4.74;69.74;99819.88;4849948;28;96890;-88
2022/11/24 11:24:13;;;;;;;58.90;34.07;;;;;;;4.64;70.30;99826.16;4852514;28;97525;-88
2022/11/24 11:26:41;;;;;;;64.50;35.37;;;;;;;4.78;69.86;99824.16;4855578;28;101157;-90
2022/11/24 11:29:06;;;;;;;68.23;36.77;;;;;;;4.76;69.76;99823.31;4864750;28;98301;-89
2022/11/24 11:31:32;;;;;;;63.10;35.07;;;;;;;4.67;69.70;99803.53;4868660;28;97009;-89
2022/11/24 11:34:13;;;;;;;64.07;34.13;;;;;;;4.70;70.14;99813.88;4864476;28;97310;-91